sensor_id;sensor_type;location;lat;lon;timestamp;temperature;humidity
22966;DHT22;11649;48.090;9.754;2022-12-29T00:02:21;5.40;96.90
22966;DHT22;11649;48.090;9.754;2022-12-29T00:04:49;5.50;95.70
22966;DHT22;11649;48.090;9.754;2022-12-29T00:07:18;5.50;97.00
22966;DHT22;11649;48.090;9.754;2022-12-29T00:09:45;5.50;95.90
22966;DHT22;11649;48.090;9.754;2022-12-29T00:12:11;5.50;96.30
22966;DHT22;11649;48.090;9.754;2022-12-29T00:14:38;5.50;96.00
22966;DHT22;11649;48.090;9.754;2022-12-29T00:17:23;5.50;96.80
22966;DHT22;11649;48.090;9.754;2022-12-29T00:19:50;5.60;94.90
22966;DHT22;11649;48.090;9.754;2022-12-29T00:22:35;5.60;95.60
22966;DHT22;11649;48.090;9.754;2022-12-29T00:25:21;5.60;96.10
22966;DHT22;11649;48.090;9.754;2022-12-29T00:28:08;5.60;95.30
22966;DHT22;11649;48.090;9.754;2022-12-29T00:30:59;5.70;96.30
22966;DHT22;11649;48.090;9.754;2022-12-29T00:33:44;5.60;95.60
22966;DHT22;11649;48.090;9.754;2022-12-29T00:36:35;5.60;95.50
22966;DHT22;11649;48.090;9.754;2022-12-29T00:39:07;5.60;95.70
22966;DHT22;11649;48.090;9.754;2022-12-29T00:41:54;5.60;96.20
22966;DHT22;11649;48.090;9.754;2022-12-29T00:44:40;5.50;95.80
22966;DHT22;11649;48.090;9.754;2022-12-29T00:47:06;5.50;96.80
22966;DHT22;11649;48.090;9.754;2022-12-29T00:49:33;5.40;96.00
22966;DHT22;11649;48.090;9.754;2022-12-29T00:52:02;5.50;95.30
22966;DHT22;11649;48.090;9.754;2022-12-29T00:54:32;5.50;97.10
22966;DHT22;11649;48.090;9.754;2022-12-29T00:57:00;5.40;95.80
22966;DHT22;11649;48.090;9.754;2022-12-29T00:59:26;5.50;95.70
22966;DHT22;11649;48.090;9.754;2022-12-29T01:01:54;5.50;96.30
22966;DHT22;11649;48.090;9.754;2022-12-29T01:04:23;5.50;95.20
22966;DHT22;11649;48.090;9.754;2022-12-29T01:06:51;5.50;95.90
22966;DHT22;11649;48.090;9.754;2022-12-29T01:09:18;5.60;94.90
22966;DHT22;11649;48.090;9.754;2022-12-29T01:12:05;5.50;96.70
22966;DHT22;11649;48.090;9.754;2022-12-29T01:14:32;5.50;96.40
22966;DHT22;11649;48.090;9.754;2022-12-29T01:16:59;5.50;96.40
22966;DHT22;11649;48.090;9.754;2022-12-29T01:19:26;5.50;96.70
22966;DHT22;11649;48.090;9.754;2022-12-29T01:21:53;5.50;96.30
22966;DHT22;11649;48.090;9.754;2022-12-29T01:24:20;5.60;96.00
22966;DHT22;11649;48.090;9.754;2022-12-29T01:26:48;5.60;96.20
22966;DHT22;11649;48.090;9.754;2022-12-29T01:29:15;5.60;96.00
22966;DHT22;11649;48.090;9.754;2022-12-29T01:31:43;5.60;96.20
22966;DHT22;11649;48.090;9.754;2022-12-29T01:34:10;5.70;96.10
22966;DHT22;11649;48.090;9.754;2022-12-29T01:36:37;5.70;94.20
22966;DHT22;11649;48.090;9.754;2022-12-29T01:39:04;5.80;92.40
22966;DHT22;11649;48.090;9.754;2022-12-29T01:41:31;5.80;93.70
22966;DHT22;11649;48.090;9.754;2022-12-29T01:43:59;5.80;93.30
22966;DHT22;11649;48.090;9.754;2022-12-29T01:46:39;5.80;91.90
22966;DHT22;11649;48.090;9.754;2022-12-29T01:49:24;6.00;91.10
22966;DHT22;11649;48.090;9.754;2022-12-29T01:51:59;6.00;91.00
22966;DHT22;11649;48.090;9.754;2022-12-29T01:57:01;6.00;92.20
22966;DHT22;11649;48.090;9.754;2022-12-29T01:59:34;6.00;91.70
22966;DHT22;11649;48.090;9.754;2022-12-29T02:02:02;6.00;90.80
22966;DHT22;11649;48.090;9.754;2022-12-29T02:04:31;6.10;90.20
22966;DHT22;11649;48.090;9.754;2022-12-29T02:07:11;6.10;90.30
22966;DHT22;11649;48.090;9.754;2022-12-29T02:09:41;6.20;90.90
22966;DHT22;11649;48.090;9.754;2022-12-29T02:12:09;6.20;90.50
22966;DHT22;11649;48.090;9.754;2022-12-29T02:14:36;6.20;89.70
22966;DHT22;11649;48.090;9.754;2022-12-29T02:20:40;6.10;92.20
22966;DHT22;11649;48.090;9.754;2022-12-29T02:31:15;6.00;91.00
22966;DHT22;11649;48.090;9.754;2022-12-29T02:34:02;6.10;91.40
22966;DHT22;11649;48.090;9.754;2022-12-29T02:39:54;6.20;90.00
22966;DHT22;11649;48.090;9.754;2022-12-29T02:42:33;6.20;90.40
22966;DHT22;11649;48.090;9.754;2022-12-29T02:45:22;6.20;91.40
22966;DHT22;11649;48.090;9.754;2022-12-29T02:50:26;6.30;90.00
22966;DHT22;11649;48.090;9.754;2022-12-29T02:53:00;6.40;90.50
22966;DHT22;11649;48.090;9.754;2022-12-29T02:55:28;6.30;91.10
22966;DHT22;11649;48.090;9.754;2022-12-29T02:58:27;6.40;90.70
22966;DHT22;11649;48.090;9.754;2022-12-29T03:01:06;6.40;90.60
22966;DHT22;11649;48.090;9.754;2022-12-29T03:07:00;6.50;90.20
22966;DHT22;11649;48.090;9.754;2022-12-29T03:15:28;6.60;90.00
22966;DHT22;11649;48.090;9.754;2022-12-29T03:18:23;6.60;90.50
22966;DHT22;11649;48.090;9.754;2022-12-29T03:21:02;6.60;90.70
22966;DHT22;11649;48.090;9.754;2022-12-29T03:23:30;6.60;91.10
22966;DHT22;11649;48.090;9.754;2022-12-29T03:26:03;6.70;90.60
22966;DHT22;11649;48.090;9.754;2022-12-29T03:28:43;6.70;90.80
22966;DHT22;11649;48.090;9.754;2022-12-29T03:31:14;6.80;90.20
22966;DHT22;11649;48.090;9.754;2022-12-29T03:33:43;6.80;89.30
22966;DHT22;11649;48.090;9.754;2022-12-29T03:36:16;6.80;89.00
22966;DHT22;11649;48.090;9.754;2022-12-29T03:38:50;6.70;88.10
22966;DHT22;11649;48.090;9.754;2022-12-29T03:41:23;6.80;89.20
22966;DHT22;11649;48.090;9.754;2022-12-29T03:43:52;6.80;88.30
22966;DHT22;11649;48.090;9.754;2022-12-29T03:46:19;6.80;88.80
22966;DHT22;11649;48.090;9.754;2022-12-29T03:48:45;6.70;90.40
22966;DHT22;11649;48.090;9.754;2022-12-29T03:51:12;6.80;89.90
22966;DHT22;11649;48.090;9.754;2022-12-29T03:53:40;6.70;90.50
22966;DHT22;11649;48.090;9.754;2022-12-29T03:56:07;6.70;90.70
22966;DHT22;11649;48.090;9.754;2022-12-29T03:58:34;6.80;90.30
22966;DHT22;11649;48.090;9.754;2022-12-29T04:01:00;6.70;90.70
22966;DHT22;11649;48.090;9.754;2022-12-29T04:03:27;6.80;90.20
22966;DHT22;11649;48.090;9.754;2022-12-29T04:05:54;6.80;90.50
22966;DHT22;11649;48.090;9.754;2022-12-29T04:08:21;6.70;92.10
22966;DHT22;11649;48.090;9.754;2022-12-29T04:10:48;6.70;91.50
22966;DHT22;11649;48.090;9.754;2022-12-29T04:13:16;6.70;92.00
22966;DHT22;11649;48.090;9.754;2022-12-29T04:15:44;6.70;91.60
22966;DHT22;11649;48.090;9.754;2022-12-29T04:18:12;6.80;91.30
22966;DHT22;11649;48.090;9.754;2022-12-29T04:20:40;6.80;91.70
22966;DHT22;11649;48.090;9.754;2022-12-29T04:23:25;6.80;91.80
22966;DHT22;11649;48.090;9.754;2022-12-29T04:25:52;6.80;91.70
22966;DHT22;11649;48.090;9.754;2022-12-29T04:28:19;6.80;92.90
22966;DHT22;11649;48.090;9.754;2022-12-29T04:30:46;6.80;92.70
22966;DHT22;11649;48.090;9.754;2022-12-29T04:33:13;6.80;92.60
22966;DHT22;11649;48.090;9.754;2022-12-29T04:35:41;6.80;93.10
22966;DHT22;11649;48.090;9.754;2022-12-29T04:38:08;6.80;92.70
22966;DHT22;11649;48.090;9.754;2022-12-29T04:40:38;6.80;93.60
22966;DHT22;11649;48.090;9.754;2022-12-29T04:43:06;6.80;93.90
22966;DHT22;11649;48.090;9.754;2022-12-29T04:45:33;6.80;93.70
22966;DHT22;11649;48.090;9.754;2022-12-29T04:48:00;6.70;94.80
22966;DHT22;11649;48.090;9.754;2022-12-29T04:50:26;6.70;95.60
22966;DHT22;11649;48.090;9.754;2022-12-29T04:52:53;6.70;96.40
22966;DHT22;11649;48.090;9.754;2022-12-29T04:55:20;6.80;94.70
22966;DHT22;11649;48.090;9.754;2022-12-29T04:57:47;6.80;95.20
22966;DHT22;11649;48.090;9.754;2022-12-29T05:00:14;6.80;95.90
22966;DHT22;11649;48.090;9.754;2022-12-29T05:02:41;6.80;96.70
22966;DHT22;11649;48.090;9.754;2022-12-29T05:05:08;6.80;96.90
22966;DHT22;11649;48.090;9.754;2022-12-29T05:07:35;6.80;98.30
22966;DHT22;11649;48.090;9.754;2022-12-29T05:10:03;6.80;97.40
22966;DHT22;11649;48.090;9.754;2022-12-29T05:12:31;6.80;97.60
22966;DHT22;11649;48.090;9.754;2022-12-29T05:14:58;6.80;98.70
22966;DHT22;11649;48.090;9.754;2022-12-29T05:17:25;6.80;98.00
22966;DHT22;11649;48.090;9.754;2022-12-29T05:19:52;6.80;98.80
22966;DHT22;11649;48.090;9.754;2022-12-29T05:22:19;6.70;99.00
22966;DHT22;11649;48.090;9.754;2022-12-29T05:24:46;6.70;98.80
22966;DHT22;11649;48.090;9.754;2022-12-29T05:27:13;6.70;99.40
22966;DHT22;11649;48.090;9.754;2022-12-29T05:29:40;6.70;99.30
22966;DHT22;11649;48.090;9.754;2022-12-29T05:32:06;6.70;98.90
22966;DHT22;11649;48.090;9.754;2022-12-29T05:34:33;6.70;99.80
22966;DHT22;11649;48.090;9.754;2022-12-29T05:37:00;6.70;99.80
22966;DHT22;11649;48.090;9.754;2022-12-29T05:39:29;6.60;99.90
22966;DHT22;11649;48.090;9.754;2022-12-29T05:41:55;6.60;99.90
22966;DHT22;11649;48.090;9.754;2022-12-29T05:44:23;6.60;99.90
22966;DHT22;11649;48.090;9.754;2022-12-29T05:46:49;6.60;99.90
22966;DHT22;11649;48.090;9.754;2022-12-29T05:49:17;6.60;99.90
22966;DHT22;11649;48.090;9.754;2022-12-29T05:51:44;6.70;99.90
22966;DHT22;11649;48.090;9.754;2022-12-29T05:54:10;6.70;99.90
22966;DHT22;11649;48.090;9.754;2022-12-29T05:56:37;6.70;99.90
22966;DHT22;11649;48.090;9.754;2022-12-29T05:59:04;6.70;99.90
22966;DHT22;11649;48.090;9.754;2022-12-29T06:01:31;6.70;99.90
22966;DHT22;11649;48.090;9.754;2022-12-29T06:03:58;6.70;99.90
22966;DHT22;11649;48.090;9.754;2022-12-29T06:06:25;6.60;99.90
22966;DHT22;11649;48.090;9.754;2022-12-29T06:08:52;6.50;99.90
22966;DHT22;11649;48.090;9.754;2022-12-29T06:11:18;6.50;99.90
22966;DHT22;11649;48.090;9.754;2022-12-29T06:13:45;6.40;99.90
22966;DHT22;11649;48.090;9.754;2022-12-29T06:16:12;6.40;99.90
22966;DHT22;11649;48.090;9.754;2022-12-29T06:18:39;6.50;99.90
22966;DHT22;11649;48.090;9.754;2022-12-29T06:21:06;6.30;99.90
22966;DHT22;11649;48.090;9.754;2022-12-29T06:23:32;6.30;99.90
22966;DHT22;11649;48.090;9.754;2022-12-29T06:25:59;6.40;99.90
22966;DHT22;11649;48.090;9.754;2022-12-29T06:28:26;6.30;99.90
22966;DHT22;11649;48.090;9.754;2022-12-29T06:30:53;6.40;99.90
22966;DHT22;11649;48.090;9.754;2022-12-29T06:33:19;6.50;99.90
22966;DHT22;11649;48.090;9.754;2022-12-29T06:35:47;6.50;99.90
22966;DHT22;11649;48.090;9.754;2022-12-29T06:38:14;6.50;99.90
22966;DHT22;11649;48.090;9.754;2022-12-29T06:40:42;6.60;99.90
22966;DHT22;11649;48.090;9.754;2022-12-29T06:43:11;6.70;99.90
22966;DHT22;11649;48.090;9.754;2022-12-29T06:45:39;6.80;99.90
22966;DHT22;11649;48.090;9.754;2022-12-29T06:48:07;6.70;99.90
22966;DHT22;11649;48.090;9.754;2022-12-29T06:50:34;6.70;99.90
22966;DHT22;11649;48.090;9.754;2022-12-29T06:53:00;6.70;99.90
22966;DHT22;11649;48.090;9.754;2022-12-29T06:55:27;6.70;99.90
22966;DHT22;11649;48.090;9.754;2022-12-29T06:57:58;6.80;99.90
22966;DHT22;11649;48.090;9.754;2022-12-29T07:00:25;6.80;99.90
22966;DHT22;11649;48.090;9.754;2022-12-29T07:02:52;6.80;99.90
22966;DHT22;11649;48.090;9.754;2022-12-29T07:05:21;6.80;99.90
22966;DHT22;11649;48.090;9.754;2022-12-29T07:07:47;6.70;99.90
22966;DHT22;11649;48.090;9.754;2022-12-29T07:10:14;6.70;99.90
22966;DHT22;11649;48.090;9.754;2022-12-29T07:12:41;6.80;99.90
22966;DHT22;11649;48.090;9.754;2022-12-29T07:15:08;6.80;99.90
22966;DHT22;11649;48.090;9.754;2022-12-29T07:17:35;6.80;99.90
22966;DHT22;11649;48.090;9.754;2022-12-29T07:20:02;6.90;99.90
22966;DHT22;11649;48.090;9.754;2022-12-29T07:22:29;6.80;99.90
22966;DHT22;11649;48.090;9.754;2022-12-29T07:24:56;6.90;99.90
22966;DHT22;11649;48.090;9.754;2022-12-29T07:27:22;6.90;99.90
22966;DHT22;11649;48.090;9.754;2022-12-29T07:29:49;7.10;99.90
22966;DHT22;11649;48.090;9.754;2022-12-29T07:32:16;6.80;99.90
22966;DHT22;11649;48.090;9.754;2022-12-29T07:34:43;6.80;99.90
22966;DHT22;11649;48.090;9.754;2022-12-29T07:37:11;6.90;99.90
22966;DHT22;11649;48.090;9.754;2022-12-29T07:39:38;7.00;99.90
22966;DHT22;11649;48.090;9.754;2022-12-29T07:42:05;7.00;99.90
22966;DHT22;11649;48.090;9.754;2022-12-29T07:44:32;7.00;99.90
22966;DHT22;11649;48.090;9.754;2022-12-29T07:46:59;7.00;99.90
22966;DHT22;11649;48.090;9.754;2022-12-29T07:49:27;7.20;99.90
22966;DHT22;11649;48.090;9.754;2022-12-29T07:51:54;7.00;99.90
22966;DHT22;11649;48.090;9.754;2022-12-29T07:54:21;6.90;99.90
22966;DHT22;11649;48.090;9.754;2022-12-29T07:56:50;6.90;99.90
22966;DHT22;11649;48.090;9.754;2022-12-29T07:59:16;7.00;99.90
22966;DHT22;11649;48.090;9.754;2022-12-29T08:01:43;7.10;99.90
22966;DHT22;11649;48.090;9.754;2022-12-29T08:04:10;7.10;99.90
22966;DHT22;11649;48.090;9.754;2022-12-29T08:06:38;7.00;99.90
22966;DHT22;11649;48.090;9.754;2022-12-29T08:09:08;7.10;99.90
22966;DHT22;11649;48.090;9.754;2022-12-29T08:11:44;8.10;99.90
22966;DHT22;11649;48.090;9.754;2022-12-29T08:14:11;7.30;99.90
22966;DHT22;11649;48.090;9.754;2022-12-29T08:16:38;7.40;99.90
22966;DHT22;11649;48.090;9.754;2022-12-29T08:19:05;7.40;99.90
22966;DHT22;11649;48.090;9.754;2022-12-29T08:21:32;7.50;99.90
22966;DHT22;11649;48.090;9.754;2022-12-29T08:23:59;7.50;99.90
22966;DHT22;11649;48.090;9.754;2022-12-29T08:26:26;7.60;99.90
22966;DHT22;11649;48.090;9.754;2022-12-29T08:28:53;8.10;99.90
22966;DHT22;11649;48.090;9.754;2022-12-29T08:31:21;7.90;99.60
22966;DHT22;11649;48.090;9.754;2022-12-29T08:33:50;7.70;99.90
22966;DHT22;11649;48.090;9.754;2022-12-29T08:36:20;7.70;99.90
22966;DHT22;11649;48.090;9.754;2022-12-29T08:38:48;7.70;99.90
22966;DHT22;11649;48.090;9.754;2022-12-29T08:41:15;8.70;99.90
22966;DHT22;11649;48.090;9.754;2022-12-29T08:43:46;7.70;99.90
22966;DHT22;11649;48.090;9.754;2022-12-29T08:46:13;7.80;99.90
22966;DHT22;11649;48.090;9.754;2022-12-29T08:48:40;7.80;99.90
22966;DHT22;11649;48.090;9.754;2022-12-29T08:51:08;7.90;99.90
22966;DHT22;11649;48.090;9.754;2022-12-29T08:53:35;7.90;99.90
22966;DHT22;11649;48.090;9.754;2022-12-29T08:56:02;8.00;99.90
22966;DHT22;11649;48.090;9.754;2022-12-29T08:58:31;7.90;99.90
22966;DHT22;11649;48.090;9.754;2022-12-29T09:00:58;8.00;99.90
22966;DHT22;11649;48.090;9.754;2022-12-29T09:03:26;8.00;99.90
22966;DHT22;11649;48.090;9.754;2022-12-29T09:06:14;8.00;99.90
22966;DHT22;11649;48.090;9.754;2022-12-29T09:08:42;7.90;99.90
22966;DHT22;11649;48.090;9.754;2022-12-29T09:11:13;8.00;99.90
22966;DHT22;11649;48.090;9.754;2022-12-29T09:13:40;8.10;99.50
22966;DHT22;11649;48.090;9.754;2022-12-29T09:16:07;8.10;99.90
22966;DHT22;11649;48.090;9.754;2022-12-29T09:18:35;8.20;98.10
22966;DHT22;11649;48.090;9.754;2022-12-29T09:21:03;8.20;99.40
22966;DHT22;11649;48.090;9.754;2022-12-29T09:23:31;8.30;97.70
22966;DHT22;11649;48.090;9.754;2022-12-29T09:25:58;8.30;98.50
22966;DHT22;11649;48.090;9.754;2022-12-29T09:28:25;8.40;97.40
22966;DHT22;11649;48.090;9.754;2022-12-29T09:30:52;8.40;96.50
22966;DHT22;11649;48.090;9.754;2022-12-29T09:33:19;8.50;95.70
22966;DHT22;11649;48.090;9.754;2022-12-29T09:35:51;8.70;95.20
22966;DHT22;11649;48.090;9.754;2022-12-29T09:38:18;8.60;93.30
22966;DHT22;11649;48.090;9.754;2022-12-29T09:40:51;8.70;93.30
22966;DHT22;11649;48.090;9.754;2022-12-29T09:48:45;8.60;93.00
22966;DHT22;11649;48.090;9.754;2022-12-29T09:51:17;8.60;94.00
22966;DHT22;11649;48.090;9.754;2022-12-29T09:53:51;8.70;93.60
22966;DHT22;11649;48.090;9.754;2022-12-29T09:56:21;8.70;93.30
22966;DHT22;11649;48.090;9.754;2022-12-29T09:59:15;8.70;94.20
22966;DHT22;11649;48.090;9.754;2022-12-29T10:01:53;8.80;94.40
22966;DHT22;11649;48.090;9.754;2022-12-29T10:04:21;8.90;93.10
22966;DHT22;11649;48.090;9.754;2022-12-29T10:09:56;9.10;90.40
22966;DHT22;11649;48.090;9.754;2022-12-29T10:17:57;9.20;90.40
22966;DHT22;11649;48.090;9.754;2022-12-29T10:20:49;9.40;90.40
22966;DHT22;11649;48.090;9.754;2022-12-29T10:23:29;9.30;90.90
22966;DHT22;11649;48.090;9.754;2022-12-29T10:25:59;9.30;89.80
22966;DHT22;11649;48.090;9.754;2022-12-29T10:28:43;9.40;89.80
22966;DHT22;11649;48.090;9.754;2022-12-29T10:31:22;9.40;90.00
22966;DHT22;11649;48.090;9.754;2022-12-29T10:33:57;9.40;91.10
22966;DHT22;11649;48.090;9.754;2022-12-29T10:39:23;9.40;91.60
22966;DHT22;11649;48.090;9.754;2022-12-29T10:42:09;9.50;91.30
22966;DHT22;11649;48.090;9.754;2022-12-29T10:44:37;9.60;91.50
22966;DHT22;11649;48.090;9.754;2022-12-29T10:47:07;9.50;91.00
22966;DHT22;11649;48.090;9.754;2022-12-29T10:49:42;9.80;91.50
22966;DHT22;11649;48.090;9.754;2022-12-29T10:52:10;9.60;92.50
22966;DHT22;11649;48.090;9.754;2022-12-29T10:54:40;9.60;92.40
22966;DHT22;11649;48.090;9.754;2022-12-29T10:57:13;9.90;92.30
22966;DHT22;11649;48.090;9.754;2022-12-29T10:59:44;9.70;91.70
22966;DHT22;11649;48.090;9.754;2022-12-29T11:07:05;9.90;92.40
22966;DHT22;11649;48.090;9.754;2022-12-29T11:09:40;9.90;92.00
22966;DHT22;11649;48.090;9.754;2022-12-29T11:12:26;9.90;91.50
22966;DHT22;11649;48.090;9.754;2022-12-29T11:17:49;10.00;92.70
22966;DHT22;11649;48.090;9.754;2022-12-29T11:20:37;9.90;92.40
22966;DHT22;11649;48.090;9.754;2022-12-29T11:23:25;9.90;92.50
22966;DHT22;11649;48.090;9.754;2022-12-29T11:28:38;9.90;93.20
22966;DHT22;11649;48.090;9.754;2022-12-29T11:31:06;10.00;92.10
22966;DHT22;11649;48.090;9.754;2022-12-29T11:33:39;10.10;91.80
22966;DHT22;11649;48.090;9.754;2022-12-29T11:36:10;10.10;91.60
22966;DHT22;11649;48.090;9.754;2022-12-29T11:38:46;10.00;93.00
22966;DHT22;11649;48.090;9.754;2022-12-29T11:41:21;10.10;91.90
22966;DHT22;11649;48.090;9.754;2022-12-29T11:43:49;10.10;91.90
22966;DHT22;11649;48.090;9.754;2022-12-29T11:46:22;10.20;91.00
22966;DHT22;11649;48.090;9.754;2022-12-29T11:48:50;10.10;91.80
22966;DHT22;11649;48.090;9.754;2022-12-29T11:51:43;10.00;91.90
22966;DHT22;11649;48.090;9.754;2022-12-29T11:54:19;10.00;92.40
22966;DHT22;11649;48.090;9.754;2022-12-29T11:56:48;9.90;91.90
22966;DHT22;11649;48.090;9.754;2022-12-29T12:01:57;10.10;91.70
22966;DHT22;11649;48.090;9.754;2022-12-29T12:04:30;10.20;91.90
22966;DHT22;11649;48.090;9.754;2022-12-29T12:07:23;10.20;91.80
22966;DHT22;11649;48.090;9.754;2022-12-29T12:09:57;10.20;92.10
22966;DHT22;11649;48.090;9.754;2022-12-29T12:12:39;10.20;91.90
22966;DHT22;11649;48.090;9.754;2022-12-29T12:15:15;11.30;92.70
22966;DHT22;11649;48.090;9.754;2022-12-29T12:17:57;10.30;92.50
22966;DHT22;11649;48.090;9.754;2022-12-29T12:20:38;10.30;92.30
22966;DHT22;11649;48.090;9.754;2022-12-29T12:29:41;10.30;93.10
22966;DHT22;11649;48.090;9.754;2022-12-29T12:32:22;10.30;92.80
22966;DHT22;11649;48.090;9.754;2022-12-29T12:34:50;10.30;93.40
22966;DHT22;11649;48.090;9.754;2022-12-29T12:37:30;10.30;91.80
22966;DHT22;11649;48.090;9.754;2022-12-29T12:48:53;10.30;93.30
22966;DHT22;11649;48.090;9.754;2022-12-29T13:00:40;10.50;92.70
22966;DHT22;11649;48.090;9.754;2022-12-29T13:03:15;10.40;92.80
22966;DHT22;11649;48.090;9.754;2022-12-29T13:05:57;10.40;94.50
22966;DHT22;11649;48.090;9.754;2022-12-29T13:09:08;10.30;94.20
22966;DHT22;11649;48.090;9.754;2022-12-29T13:20:24;10.30;93.80
22966;DHT22;11649;48.090;9.754;2022-12-29T13:23:17;10.40;94.00
22966;DHT22;11649;48.090;9.754;2022-12-29T13:25:48;10.30;94.50
22966;DHT22;11649;48.090;9.754;2022-12-29T13:28:20;10.20;95.20
22966;DHT22;11649;48.090;9.754;2022-12-29T13:31:12;10.20;95.70
22966;DHT22;11649;48.090;9.754;2022-12-29T13:34:16;10.30;94.30
22966;DHT22;11649;48.090;9.754;2022-12-29T13:36:59;10.20;94.50
22966;DHT22;11649;48.090;9.754;2022-12-29T13:39:32;10.20;94.70
22966;DHT22;11649;48.090;9.754;2022-12-29T13:42:02;10.20;95.00
22966;DHT22;11649;48.090;9.754;2022-12-29T13:44:40;10.30;94.50
22966;DHT22;11649;48.090;9.754;2022-12-29T13:47:38;10.20;94.90
22966;DHT22;11649;48.090;9.754;2022-12-29T13:50:17;10.20;95.80
22966;DHT22;11649;48.090;9.754;2022-12-29T13:55:41;10.20;95.00
22966;DHT22;11649;48.090;9.754;2022-12-29T14:01:31;10.20;96.10
22966;DHT22;11649;48.090;9.754;2022-12-29T14:04:03;10.20;95.30
22966;DHT22;11649;48.090;9.754;2022-12-29T14:06:36;10.20;95.40
22966;DHT22;11649;48.090;9.754;2022-12-29T14:17:39;10.40;96.40
22966;DHT22;11649;48.090;9.754;2022-12-29T14:20:17;10.50;95.50
22966;DHT22;11649;48.090;9.754;2022-12-29T14:23:01;10.60;95.50
22966;DHT22;11649;48.090;9.754;2022-12-29T14:25:54;10.80;94.90
22966;DHT22;11649;48.090;9.754;2022-12-29T14:28:29;11.50;93.40
22966;DHT22;11649;48.090;9.754;2022-12-29T14:31:01;11.70;91.90
22966;DHT22;11649;48.090;9.754;2022-12-29T14:33:30;11.50;91.70
22966;DHT22;11649;48.090;9.754;2022-12-29T14:36:19;11.30;92.50
22966;DHT22;11649;48.090;9.754;2022-12-29T14:38:47;11.10;93.60
22966;DHT22;11649;48.090;9.754;2022-12-29T14:41:35;10.90;94.20
22966;DHT22;11649;48.090;9.754;2022-12-29T14:46:47;10.60;95.00
22966;DHT22;11649;48.090;9.754;2022-12-29T14:49:17;10.50;96.10
22966;DHT22;11649;48.090;9.754;2022-12-29T14:51:46;10.50;96.70
22966;DHT22;11649;48.090;9.754;2022-12-29T14:57:02;10.30;96.70
22966;DHT22;11649;48.090;9.754;2022-12-29T14:59:31;10.30;97.60
22966;DHT22;11649;48.090;9.754;2022-12-29T15:02:01;10.40;97.50
22966;DHT22;11649;48.090;9.754;2022-12-29T15:04:33;10.10;97.00
22966;DHT22;11649;48.090;9.754;2022-12-29T15:07:02;10.00;97.60
22966;DHT22;11649;48.090;9.754;2022-12-29T15:09:42;9.90;98.70
22966;DHT22;11649;48.090;9.754;2022-12-29T15:12:21;9.80;98.70
22966;DHT22;11649;48.090;9.754;2022-12-29T15:14:54;9.70;98.90
22966;DHT22;11649;48.090;9.754;2022-12-29T15:17:28;9.70;99.80
22966;DHT22;11649;48.090;9.754;2022-12-29T15:19:57;9.70;98.70
22966;DHT22;11649;48.090;9.754;2022-12-29T15:22:24;9.70;99.40
22966;DHT22;11649;48.090;9.754;2022-12-29T15:24:53;9.60;99.50
22966;DHT22;11649;48.090;9.754;2022-12-29T15:27:29;9.60;99.10
22966;DHT22;11649;48.090;9.754;2022-12-29T15:30:01;9.60;99.90
22966;DHT22;11649;48.090;9.754;2022-12-29T15:32:46;9.50;99.80
22966;DHT22;11649;48.090;9.754;2022-12-29T15:35:32;9.50;99.60
22966;DHT22;11649;48.090;9.754;2022-12-29T15:38:12;9.50;99.80
22966;DHT22;11649;48.090;9.754;2022-12-29T15:40:39;9.40;99.90
22966;DHT22;11649;48.090;9.754;2022-12-29T15:45:49;9.40;99.90
22966;DHT22;11649;48.090;9.754;2022-12-29T15:48:22;9.30;99.90
22966;DHT22;11649;48.090;9.754;2022-12-29T15:50:50;9.40;99.90
22966;DHT22;11649;48.090;9.754;2022-12-29T15:53:31;9.30;99.90
22966;DHT22;11649;48.090;9.754;2022-12-29T15:56:07;9.30;99.90
22966;DHT22;11649;48.090;9.754;2022-12-29T15:58:52;9.20;99.90
22966;DHT22;11649;48.090;9.754;2022-12-29T16:01:26;9.20;99.90
22966;DHT22;11649;48.090;9.754;2022-12-29T16:03:54;9.20;99.90
22966;DHT22;11649;48.090;9.754;2022-12-29T16:06:33;9.20;99.90
22966;DHT22;11649;48.090;9.754;2022-12-29T16:09:06;9.10;99.90
22966;DHT22;11649;48.090;9.754;2022-12-29T16:11:38;9.10;99.90
22966;DHT22;11649;48.090;9.754;2022-12-29T16:14:17;9.10;99.90
22966;DHT22;11649;48.090;9.754;2022-12-29T16:16:46;9.10;99.90
22966;DHT22;11649;48.090;9.754;2022-12-29T16:21:45;9.10;99.90
22966;DHT22;11649;48.090;9.754;2022-12-29T16:24:15;9.10;99.90
22966;DHT22;11649;48.090;9.754;2022-12-29T16:26:53;9.10;99.90
22966;DHT22;11649;48.090;9.754;2022-12-29T16:29:22;9.10;99.90
22966;DHT22;11649;48.090;9.754;2022-12-29T16:31:58;9.00;99.90
22966;DHT22;11649;48.090;9.754;2022-12-29T16:34:42;9.10;99.90
22966;DHT22;11649;48.090;9.754;2022-12-29T16:37:31;9.20;99.90
22966;DHT22;11649;48.090;9.754;2022-12-29T16:40:24;9.10;99.90
22966;DHT22;11649;48.090;9.754;2022-12-29T16:42:57;9.10;99.90
22966;DHT22;11649;48.090;9.754;2022-12-29T16:48:24;9.20;99.90
22966;DHT22;11649;48.090;9.754;2022-12-29T16:51:12;9.10;99.90
22966;DHT22;11649;48.090;9.754;2022-12-29T16:53:41;9.10;99.90
22966;DHT22;11649;48.090;9.754;2022-12-29T16:56:14;9.00;99.90
22966;DHT22;11649;48.090;9.754;2022-12-29T16:58:47;9.00;99.90
22966;DHT22;11649;48.090;9.754;2022-12-29T17:01:15;9.00;99.90
22966;DHT22;11649;48.090;9.754;2022-12-29T17:03:51;9.00;99.90
22966;DHT22;11649;48.090;9.754;2022-12-29T17:06:21;9.00;99.90
22966;DHT22;11649;48.090;9.754;2022-12-29T17:08:48;9.00;99.90
22966;DHT22;11649;48.090;9.754;2022-12-29T17:14:49;9.00;99.90
22966;DHT22;11649;48.090;9.754;2022-12-29T17:20:24;9.00;99.90
22966;DHT22;11649;48.090;9.754;2022-12-29T17:22:52;9.00;99.90
22966;DHT22;11649;48.090;9.754;2022-12-29T17:25:36;9.00;99.90
22966;DHT22;11649;48.090;9.754;2022-12-29T17:28:20;8.90;99.90
22966;DHT22;11649;48.090;9.754;2022-12-29T17:30:48;8.90;99.90
22966;DHT22;11649;48.090;9.754;2022-12-29T17:33:19;8.90;99.90
22966;DHT22;11649;48.090;9.754;2022-12-29T17:35:47;9.00;99.90
22966;DHT22;11649;48.090;9.754;2022-12-29T17:38:31;9.00;99.90
22966;DHT22;11649;48.090;9.754;2022-12-29T17:41:00;9.00;99.90
22966;DHT22;11649;48.090;9.754;2022-12-29T17:43:27;9.00;99.90
22966;DHT22;11649;48.090;9.754;2022-12-29T17:46:04;9.00;99.90
22966;DHT22;11649;48.090;9.754;2022-12-29T17:48:31;9.00;99.90
22966;DHT22;11649;48.090;9.754;2022-12-29T17:50:58;9.00;99.90
22966;DHT22;11649;48.090;9.754;2022-12-29T17:53:28;9.00;99.90
22966;DHT22;11649;48.090;9.754;2022-12-29T17:55:55;9.00;99.90
22966;DHT22;11649;48.090;9.754;2022-12-29T17:58:23;9.00;99.90
22966;DHT22;11649;48.090;9.754;2022-12-29T18:00:55;9.00;99.90
22966;DHT22;11649;48.090;9.754;2022-12-29T18:03:30;9.10;99.90
22966;DHT22;11649;48.090;9.754;2022-12-29T18:05:57;9.10;99.90
22966;DHT22;11649;48.090;9.754;2022-12-29T18:08:24;9.00;99.90
22966;DHT22;11649;48.090;9.754;2022-12-29T18:10:54;9.10;99.90
22966;DHT22;11649;48.090;9.754;2022-12-29T18:17:15;9.10;99.90
22966;DHT22;11649;48.090;9.754;2022-12-29T18:19:42;9.10;99.90
22966;DHT22;11649;48.090;9.754;2022-12-29T18:22:09;9.00;99.90
22966;DHT22;11649;48.090;9.754;2022-12-29T18:24:35;9.10;99.90